createdAt,value
2023-02-27T00:02:16.214Z,23.50
2023-02-27T00:05:26.142Z,23.50
2023-02-27T00:08:34.440Z,23.40
2023-02-27T00:11:41.908Z,23.30
2023-02-27T00:14:54.434Z,23.40
2023-02-27T00:18:03.270Z,23.50
2023-02-27T00:21:15.004Z,23.60
2023-02-27T00:24:24.556Z,23.60
2023-02-27T00:27:35.192Z,23.50
2023-02-27T00:30:42.600Z,23.40
2023-02-27T00:33:53.375Z,23.30
2023-02-27T00:37:01.350Z,23.20
2023-02-27T00:40:16.530Z,23.30
2023-02-27T00:43:27.995Z,23.40
2023-02-27T00:46:38.475Z,23.40
2023-02-27T00:49:51.473Z,23.50
2023-02-27T00:53:01.020Z,23.50
2023-02-27T00:56:10.209Z,23.40
2023-02-27T00:59:22.011Z,23.30
2023-02-27T01:02:34.951Z,23.30
2023-02-27T01:05:45.644Z,23.40
2023-02-27T01:08:56.552Z,23.50
2023-02-27T01:12:09.468Z,23.50
2023-02-27T01:15:19.458Z,23.40
2023-02-27T01:18:29.514Z,23.30
2023-02-27T01:21:42.648Z,23.30
2023-02-27T01:24:54.305Z,23.40
2023-02-27T01:28:04.124Z,23.50
2023-02-27T01:31:14.803Z,23.60
2023-02-27T01:34:25.564Z,23.60
2023-02-27T01:37:34.794Z,23.70
2023-02-27T01:40:47.902Z,23.70
2023-02-27T01:44:00.734Z,23.60
2023-02-27T01:47:13.896Z,23.50
2023-02-27T01:50:21.811Z,23.40
2023-02-27T01:53:34.217Z,23.30
2023-02-27T01:56:44.192Z,23.20
2023-02-27T01:59:51.626Z,23.20
2023-02-27T02:03:06.400Z,23.10
2023-02-27T02:06:18.831Z,23.10
2023-02-27T02:09:26.930Z,23.10
2023-02-27T02:12:39.203Z,23.10
2023-02-27T02:15:51.681Z,23.10
2023-02-27T02:19:04.335Z,23.00
2023-02-27T02:22:41.179Z,23.00
2023-02-27T02:30:13.285Z,23.00
2023-02-27T02:34:15.735Z,23.00
2023-02-27T02:38:15.151Z,22.90
2023-02-27T02:41:31.228Z,22.90
2023-02-27T02:44:46.717Z,22.90
2023-02-27T02:48:06.912Z,22.90
2023-02-27T02:51:20.400Z,22.90
2023-02-27T02:54:35.168Z,22.80
2023-02-27T02:57:46.406Z,22.90
2023-02-27T03:01:02.569Z,22.80
2023-02-27T03:04:15.057Z,22.80
2023-02-27T03:07:26.691Z,22.70
2023-02-27T03:10:37.465Z,22.80
2023-02-27T03:13:53.139Z,22.70
2023-02-27T03:17:02.953Z,22.70
2023-02-27T03:20:14.720Z,22.70
2023-02-27T03:23:24.972Z,22.70
2023-02-27T03:26:35.735Z,22.70
2023-02-27T03:29:49.591Z,22.60
2023-02-27T03:33:01.638Z,22.60
2023-02-27T03:36:11.821Z,22.60
2023-02-27T03:39:27.263Z,22.70
2023-02-27T03:42:38.393Z,22.60
2023-02-27T03:45:49.373Z,22.50
2023-02-27T03:49:02.211Z,22.50
2023-02-27T03:52:14.163Z,22.50
2023-02-27T03:55:25.494Z,22.50
2023-02-27T03:58:35.997Z,22.50
2023-02-27T04:01:48.515Z,22.40
2023-02-27T04:04:59.257Z,22.40
2023-02-27T04:08:29.554Z,22.40
2023-02-27T04:11:46.733Z,22.40
2023-02-27T04:15:02.908Z,22.40
2023-02-27T04:18:17.187Z,22.30
2023-02-27T04:21:32.254Z,22.30
2023-02-27T04:24:46.796Z,22.30
2023-02-27T04:27:59.145Z,22.30
2023-02-27T04:31:13.776Z,22.30
2023-02-27T04:34:26.992Z,22.20
2023-02-27T04:37:39.780Z,22.20
2023-02-27T04:40:50.338Z,22.20
2023-02-27T04:44:02.778Z,22.20
2023-02-27T04:47:10.595Z,22.20
2023-02-27T04:50:22.107Z,22.10
2023-02-27T04:53:34.584Z,22.10
2023-02-27T04:56:49.185Z,22.20
2023-02-27T04:59:58.436Z,22.10
2023-02-27T05:03:08.678Z,22.00
2023-02-27T05:06:19.432Z,22.00
2023-02-27T05:09:36.902Z,22.10
2023-02-27T05:12:50.467Z,22.10
2023-02-27T05:16:00.408Z,22.00
2023-02-27T05:19:11.083Z,22.00
2023-02-27T05:22:25.135Z,22.00
2023-02-27T05:25:38.176Z,22.00
2023-02-27T05:28:50.471Z,21.90
2023-02-27T05:32:04.124Z,21.90
2023-02-27T05:35:19.790Z,21.90
2023-02-27T05:38:31.316Z,21.90
2023-02-27T05:41:43.299Z,21.90
2023-02-27T05:44:59.543Z,21.80
2023-02-27T05:48:12.594Z,21.80
2023-02-27T05:51:25.241Z,21.80
2023-02-27T05:54:37.123Z,21.80
2023-02-27T05:57:49.088Z,21.80
2023-02-27T06:00:59.681Z,21.80
2023-02-27T06:07:22.600Z,21.70
2023-02-27T06:10:33.193Z,21.70
2023-02-27T06:13:44.751Z,21.70
2023-02-27T06:16:52.235Z,21.60
2023-02-27T06:20:03.315Z,21.60
2023-02-27T06:23:13.291Z,21.60
2023-02-27T06:26:22.462Z,21.60
2023-02-27T06:29:30.040Z,21.60
2023-02-27T06:32:40.415Z,21.50
2023-02-27T06:35:55.147Z,21.50
2023-02-27T06:39:08.511Z,21.50
2023-02-27T06:42:18.519Z,21.60
2023-02-27T06:45:29.196Z,21.70
2023-02-27T06:48:39.940Z,21.80
2023-02-27T06:51:50.380Z,21.70
2023-02-27T06:55:01.244Z,21.70
2023-02-27T06:58:09.309Z,21.60
2023-02-27T07:01:23.364Z,21.60
2023-02-27T07:04:35.139Z,21.60
2023-02-27T07:07:46.881Z,21.60
2023-02-27T07:10:59.550Z,21.60
2023-02-27T07:14:09.341Z,21.50
2023-02-27T07:17:20.797Z,21.50
2023-02-27T07:20:31.013Z,21.50
2023-02-27T07:23:41.144Z,21.50
2023-02-27T07:26:53.022Z,21.50
2023-02-27T07:30:03.645Z,21.40
2023-02-27T07:33:17.377Z,21.40
2023-02-27T07:36:28.125Z,21.40
2023-02-27T07:39:40.761Z,21.40
2023-02-27T07:42:54.089Z,21.40
2023-02-27T07:46:06.945Z,21.50
2023-02-27T07:49:14.642Z,21.50
2023-02-27T07:52:25.990Z,21.50
2023-02-27T07:55:35.897Z,21.50
2023-02-27T07:58:47.767Z,21.40
2023-02-27T08:02:00.930Z,21.40
2023-02-27T08:05:14.978Z,21.50
2023-02-27T08:08:27.444Z,21.70
2023-02-27T08:11:38.308Z,21.80
2023-02-27T08:14:49.262Z,21.80
2023-02-27T08:17:58.432Z,21.70
2023-02-27T08:21:08.864Z,21.60
2023-02-27T08:24:19.430Z,21.50
2023-02-27T08:27:28.172Z,21.50
2023-02-27T08:30:40.974Z,21.50
2023-02-27T08:34:01.002Z,21.50
2023-02-27T08:37:03.079Z,21.60
2023-02-27T08:40:19.179Z,21.80
2023-02-27T08:43:30.508Z,21.70
2023-02-27T08:46:40.237Z,21.60
2023-02-27T08:49:49.908Z,21.50
2023-02-27T08:53:04.154Z,21.50
2023-02-27T08:56:15.465Z,21.50
2023-02-27T08:59:24.940Z,21.50
2023-02-27T09:02:35.633Z,21.70
2023-02-27T09:05:47.826Z,21.70
2023-02-27T09:08:58.695Z,21.70
2023-02-27T09:12:09.957Z,21.60
2023-02-27T09:15:22.386Z,21.50
2023-02-27T09:18:31.639Z,21.50
2023-02-27T09:21:40.930Z,21.50
2023-02-27T09:24:49.544Z,21.60
2023-02-27T09:28:00.568Z,21.80
2023-02-27T09:31:09.917Z,21.80
2023-02-27T09:34:19.541Z,21.80
2023-02-27T09:37:30.237Z,21.70
2023-02-27T09:40:42.747Z,21.60
2023-02-27T09:43:51.966Z,21.50
2023-02-27T09:47:05.469Z,21.50
2023-02-27T09:50:15.529Z,21.50
2023-02-27T09:53:28.777Z,21.60
2023-02-27T09:56:41.025Z,21.70
2023-02-27T09:59:52.805Z,21.70
2023-02-27T10:03:07.231Z,21.60
2023-02-27T10:06:24.854Z,21.50
2023-02-27T10:09:43.620Z,21.50
2023-02-27T10:13:06.175Z,21.40
2023-02-27T10:16:16.985Z,21.50
2023-02-27T10:19:29.797Z,21.60
2023-02-27T10:22:42.846Z,21.70
2023-02-27T10:25:51.190Z,21.70
2023-02-27T10:29:01.896Z,21.60
2023-02-27T10:32:15.590Z,21.50
2023-02-27T10:35:33.304Z,21.40
2023-02-27T10:38:45.131Z,21.50
2023-02-27T10:41:54.847Z,21.60
2023-02-27T10:45:04.196Z,21.70
2023-02-27T10:48:15.279Z,21.70
2023-02-27T10:51:29.944Z,21.60
2023-02-27T10:54:40.036Z,21.50
2023-02-27T10:57:49.850Z,21.40
2023-02-27T11:01:02.532Z,21.50
2023-02-27T11:04:12.400Z,21.50
2023-02-27T11:07:25.404Z,21.60
2023-02-27T11:10:38.011Z,21.70
2023-02-27T11:13:50.062Z,21.70
2023-02-27T11:17:03.922Z,21.60
2023-02-27T11:20:23.551Z,21.50
2023-02-27T11:23:34.953Z,21.40
2023-02-27T11:26:49.339Z,21.40
2023-02-27T11:30:05.559Z,21.50
2023-02-27T11:33:20.450Z,21.70
2023-02-27T11:36:33.057Z,21.80
2023-02-27T11:39:47.269Z,21.80
2023-02-27T11:43:00.168Z,21.70
2023-02-27T11:46:41.643Z,21.60
2023-02-27T11:49:28.046Z,21.50
2023-02-27T11:52:41.004Z,21.50
2023-02-27T11:55:53.300Z,21.50
2023-02-27T11:59:03.232Z,21.60
2023-02-27T12:02:19.488Z,21.70
2023-02-27T12:05:33.799Z,21.80
2023-02-27T12:08:44.379Z,21.80
2023-02-27T12:11:56.177Z,21.80
2023-02-27T12:15:11.819Z,21.60
2023-02-27T12:18:25.231Z,21.50
2023-02-27T12:21:34.869Z,21.50
2023-02-27T12:24:46.032Z,21.50
2023-02-27T12:27:59.132Z,21.50
2023-02-27T12:31:17.160Z,21.70
2023-02-27T12:34:31.491Z,21.80
2023-02-27T12:37:43.053Z,21.90
2023-02-27T12:40:55.955Z,22.00
2023-02-27T12:44:27.318Z,22.10
2023-02-27T12:47:40.675Z,22.20
2023-02-27T12:50:57.883Z,22.40
2023-02-27T12:54:19.873Z,22.40
2023-02-27T12:57:35.919Z,22.50
2023-02-27T13:00:48.996Z,22.60
2023-02-27T13:03:59.730Z,22.70
2023-02-27T13:07:10.968Z,22.80
2023-02-27T13:10:23.085Z,22.80
2023-02-27T13:13:34.842Z,22.80
2023-02-27T13:16:48.141Z,22.80
2023-02-27T13:20:03.262Z,22.90
2023-02-27T13:23:18.794Z,23.00
2023-02-27T13:26:30.946Z,23.10
2023-02-27T13:29:46.823Z,23.20
2023-02-27T13:32:57.474Z,23.20
2023-02-27T13:36:10.109Z,23.30
2023-02-27T13:39:48.517Z,23.20
2023-02-27T13:43:06.941Z,23.20
2023-02-27T13:46:27.996Z,23.30
2023-02-27T13:49:40.273Z,23.30
2023-02-27T13:52:50.170Z,23.40
2023-02-27T13:56:03.467Z,23.60
2023-02-27T13:59:14.330Z,23.50
2023-02-27T14:02:44.021Z,23.50
2023-02-27T14:05:50.396Z,23.40
2023-02-27T14:09:12.931Z,23.30
2023-02-27T14:12:19.253Z,23.30
2023-02-27T14:16:01.362Z,23.30
2023-02-27T14:19:31.740Z,23.30
2023-02-27T14:22:45.544Z,23.40
2023-02-27T14:25:57.711Z,23.70
2023-02-27T14:29:07.651Z,23.80
2023-02-27T14:32:23.767Z,23.90
2023-02-27T14:35:31.576Z,24.10
2023-02-27T14:38:42.032Z,24.20
2023-02-27T14:41:53.958Z,24.20
2023-02-27T14:45:05.646Z,24.20
2023-02-27T14:48:16.949Z,24.30
2023-02-27T14:51:28.064Z,24.30
2023-02-27T14:54:37.794Z,24.30
2023-02-27T14:57:58.607Z,24.30
2023-02-27T15:01:15.148Z,24.30
2023-02-27T15:04:28.153Z,24.20
2023-02-27T15:07:38.619Z,24.10
2023-02-27T15:10:50.338Z,24.10
2023-02-27T15:14:04.242Z,24.10
2023-02-27T15:17:22.882Z,24.10
2023-02-27T15:20:34.024Z,24.10
2023-02-27T15:23:45.523Z,24.20
2023-02-27T15:26:59.937Z,24.10
2023-02-27T15:30:21.503Z,23.90
2023-02-27T15:33:34.863Z,23.90
2023-02-27T15:36:46.891Z,23.90
2023-02-27T15:39:58.095Z,23.80
2023-02-27T15:43:08.713Z,23.80
2023-02-27T15:46:17.829Z,23.70
2023-02-27T15:49:28.694Z,23.80
2023-02-27T15:52:44.257Z,23.80
2023-02-27T15:55:57.108Z,23.90
2023-02-27T15:59:09.860Z,24.00
2023-02-27T16:02:24.715Z,23.90
2023-02-27T16:05:39.323Z,23.90
2023-02-27T16:08:52.800Z,23.80
2023-02-27T16:12:28.026Z,23.80
2023-02-27T16:15:42.162Z,23.70
2023-02-27T16:18:53.610Z,23.70
2023-02-27T16:22:16.047Z,23.70
2023-02-27T16:25:28.153Z,23.80
2023-02-27T16:28:42.658Z,23.80
2023-02-27T16:31:54.591Z,23.80
2023-02-27T16:35:08.230Z,23.70
2023-02-27T16:38:19.282Z,23.70
2023-02-27T16:41:31.116Z,23.60
2023-02-27T16:44:44.475Z,23.60
2023-02-27T16:47:57.233Z,23.70
2023-02-27T16:51:06.351Z,23.70
2023-02-27T16:54:17.131Z,23.80
2023-02-27T16:57:30.272Z,23.80
2023-02-27T17:00:40.286Z,23.90
2023-02-27T17:03:54.491Z,23.90
2023-02-27T17:07:06.800Z,23.80
2023-02-27T17:10:18.949Z,23.70
2023-02-27T17:13:29.922Z,23.70
2023-02-27T17:16:39.426Z,23.60
2023-02-27T17:19:47.881Z,23.60
2023-02-27T17:22:58.086Z,23.60
2023-02-27T17:26:09.380Z,23.60
2023-02-27T17:29:21.759Z,23.70
2023-02-27T17:32:30.045Z,23.70
2023-02-27T17:35:40.950Z,23.70
2023-02-27T17:38:51.715Z,23.60
2023-02-27T17:41:59.830Z,23.50
2023-02-27T17:45:13.025Z,23.40
2023-02-27T17:48:25.706Z,23.50
2023-02-27T17:51:37.186Z,23.70
2023-02-27T17:54:51.058Z,23.80
2023-02-27T17:58:02.258Z,23.70
2023-02-27T18:01:14.895Z,23.70
2023-02-27T18:04:24.709Z,23.70
2023-02-27T18:07:34.519Z,23.60
2023-02-27T18:10:43.441Z,23.50
2023-02-27T18:13:55.996Z,23.40
2023-02-27T18:17:05.284Z,23.30
2023-02-27T18:20:19.130Z,23.40
2023-02-27T18:23:29.804Z,23.60
2023-02-27T18:26:40.219Z,23.80
2023-02-27T18:29:49.233Z,23.90
2023-02-27T18:33:01.527Z,23.90
2023-02-27T18:36:15.042Z,23.80
2023-02-27T18:39:26.981Z,23.70
2023-02-27T18:42:36.772Z,23.70
2023-02-27T18:45:47.355Z,23.70
2023-02-27T18:49:00.193Z,23.60
2023-02-27T18:52:10.274Z,23.60
2023-02-27T18:55:21.721Z,23.60
2023-02-27T18:58:30.500Z,23.70
2023-02-27T19:01:43.721Z,23.80
2023-02-27T19:04:53.655Z,23.90
2023-02-27T19:08:01.006Z,24.10
2023-02-27T19:11:12.978Z,24.10
2023-02-27T19:14:25.695Z,24.00
2023-02-27T19:17:34.820Z,24.00
2023-02-27T19:20:45.413Z,23.90
2023-02-27T19:23:55.626Z,23.80
2023-02-27T19:27:08.044Z,23.70
2023-02-27T19:30:20.155Z,23.60
2023-02-27T19:33:31.830Z,23.60
2023-02-27T19:36:42.014Z,23.70
2023-02-27T19:39:51.623Z,23.70
2023-02-27T19:43:03.399Z,23.70
2023-02-27T19:46:13.333Z,23.70
2023-02-27T19:49:28.074Z,23.60
2023-02-27T19:52:39.599Z,23.60
2023-02-27T19:55:50.302Z,23.40
2023-02-27T19:58:59.100Z,23.50
2023-02-27T20:02:11.277Z,23.60
2023-02-27T20:05:19.353Z,23.70
2023-02-27T20:08:30.450Z,23.80
2023-02-27T20:11:42.806Z,23.80
2023-02-27T20:14:53.171Z,23.70
2023-02-27T20:18:03.071Z,23.60
2023-02-27T20:21:15.119Z,23.60
2023-02-27T20:24:27.152Z,23.40
2023-02-27T20:27:37.115Z,23.30
2023-02-27T20:30:45.305Z,23.30
2023-02-27T20:33:54.586Z,23.40
2023-02-27T20:37:03.800Z,23.60
2023-02-27T20:40:19.540Z,23.60
2023-02-27T20:43:29.573Z,23.70
2023-02-27T20:46:41.576Z,23.80
2023-02-27T20:49:53.502Z,23.80
2023-02-27T20:53:01.696Z,23.80
2023-02-27T20:56:13.094Z,23.60
2023-02-27T20:59:24.012Z,23.40
2023-02-27T21:02:36.474Z,23.30
2023-02-27T21:05:49.839Z,23.40
2023-02-27T21:08:56.590Z,23.60
2023-02-27T21:12:10.434Z,23.70
2023-02-27T21:15:21.478Z,23.70
2023-02-27T21:18:32.465Z,23.70
2023-02-27T21:21:45.080Z,23.60
2023-02-27T21:24:56.120Z,23.50
2023-02-27T21:28:09.562Z,23.40
2023-02-27T21:31:19.587Z,23.30
2023-02-27T21:34:29.957Z,23.20
2023-02-27T21:37:41.760Z,23.20
2023-02-27T21:40:51.454Z,23.30
2023-02-27T21:44:05.684Z,23.40
2023-02-27T21:47:14.872Z,23.60
2023-02-27T21:50:23.678Z,23.60
2023-02-27T21:53:34.624Z,23.70
2023-02-27T21:56:46.766Z,23.70
2023-02-27T21:59:56.412Z,23.50
2023-02-27T22:03:05.341Z,23.40
2023-02-27T22:06:14.644Z,23.30
2023-02-27T22:09:26.061Z,23.20
2023-02-27T22:12:38.903Z,23.30
2023-02-27T22:15:52.422Z,23.30
2023-02-27T22:19:01.936Z,23.50
2023-02-27T22:22:10.774Z,23.60
2023-02-27T22:25:22.626Z,23.70
2023-02-27T22:28:35.359Z,23.70
2023-02-27T22:31:46.261Z,23.60
2023-02-27T22:34:57.795Z,23.40
2023-02-27T22:38:07.219Z,23.30
2023-02-27T22:41:18.818Z,23.30
2023-02-27T22:44:30.554Z,23.20
2023-02-27T22:47:43.980Z,23.20
2023-02-27T22:50:52.322Z,23.10
2023-02-27T22:54:04.902Z,23.10
2023-02-27T22:57:17.274Z,23.30
2023-02-27T23:00:26.889Z,23.40
2023-02-27T23:03:37.806Z,23.60
2023-02-27T23:06:52.554Z,23.50
2023-02-27T23:10:02.699Z,23.40
2023-02-27T23:13:13.004Z,23.30
2023-02-27T23:16:23.180Z,23.20
2023-02-27T23:19:32.411Z,23.20
2023-02-27T23:22:45.947Z,23.20
2023-02-27T23:26:00.727Z,23.40
2023-02-27T23:29:09.965Z,23.60
2023-02-27T23:32:18.103Z,23.70
2023-02-27T23:35:29.063Z,23.70
2023-02-27T23:38:40.724Z,23.60
2023-02-27T23:41:49.979Z,23.40
2023-02-27T23:45:15.025Z,23.40
2023-02-27T23:48:27.456Z,23.30
2023-02-27T23:51:37.009Z,23.20
2023-02-27T23:54:47.915Z,23.40
2023-02-27T23:57:59.455Z,23.50
